Airfield :
LOGIN :

Register | Disclaimer

   EN    FR    IT 

 










Legend :    VFR   Marginal VFR   IFR   Intensive IFR   Very Intensive IFR
Visi :
Ceiling :
>= 8 km
>= 3000ft
5 to 8 km
1000 to 3000 ft
1500m to 5 km
500 to 1000 ft
800 to 1500m
200 to 500 ft
< 800m
< 200 ft
Symbols :   Thunderstorms  Fog  Heavy snow  Heavy precipitations  Wind > 20 kt
SIGMETs :     Misc.  Thunderstorms  Icing  Turbulence  Mountain Waves  Volcanic Ashes







- Airport Elevation : 526 ft
- IATA code : LTN
- Download approach charts


EGGW - London Luton

CURRENT METAR :
  • 190820Z AUTO 05010KT 9999 OVC033 06/03 Q1023

EXPIRED METARs :
  • 190750Z AUTO 06012KT 9999 OVC029 06/03 Q1023
  • 190720Z AUTO 07012KT 9999 OVC027 06/02 Q1023
  • 190650Z AUTO 06011KT 9999 OVC026 06/03 Q1023
  • 190620Z AUTO 05010KT 9999 OVC026 06/03 Q1023
  • 190550Z AUTO 05010KT 9999 SCT024 OVC028 06/03 Q1023

TAF TAF EGGW
Valid from the 19 at 06:00 until the 20 at 06:00 UTC


190500Z 1906/2006 05012KT 9999 FEW015 BKN025
PROB30
TEMPO 1908/1910 8000 -SHRA BKN010
PROB30
TEMPO 1910/1924 06017G27KT 7000 SHRA BKN012
TEMPO 2000/2006 7000 SHRA BKN012
PROB30
TEMPO 2000/2006 06017G27KT 4000 +SHRA BKN009
ATIS : +44 1582 395 204
No reported NOTAMs for that airfield.



MET'MAP, your aeronautical weather chart ! - Copyright ORBIFLY December 2007 - Disclaimer

ORBIFLY MET'MAP TEAM :

Programming & Development : Alexandra Zaïnal
Concept & Development : Baudouin d'Aumeries
Co-Development & Prog : Marc-Olivier Méhu
Technical & hardware support : Manuel Goepfert

Contact : metmap@orbifly.com




SOURCES & CREDITS :

   NOAA